createdAt,value
2017-08-15T00:02:04.608Z,3.80
2017-08-15T00:04:33.679Z,4.50
2017-08-15T00:07:01.936Z,4.63
2017-08-15T00:09:30.181Z,4.00
2017-08-15T00:11:58.426Z,4.33
2017-08-15T00:14:26.655Z,4.57
2017-08-15T00:16:54.983Z,4.80
2017-08-15T00:19:23.244Z,4.33
2017-08-15T00:21:51.613Z,4.77
2017-08-15T00:24:19.886Z,3.90
2017-08-15T00:26:49.088Z,4.67
2017-08-15T00:29:17.344Z,4.67
2017-08-15T00:31:45.601Z,4.47
2017-08-15T00:34:13.886Z,4.67
2017-08-15T00:36:42.878Z,4.43
2017-08-15T00:39:11.873Z,4.43
2017-08-15T00:41:40.902Z,5.60
2017-08-15T00:44:09.166Z,4.63
2017-08-15T00:46:37.872Z,5.90
2017-08-15T00:49:06.121Z,4.80
2017-08-15T00:51:34.427Z,5.30
2017-08-15T00:54:02.684Z,6.03
2017-08-15T00:56:30.945Z,5.40
2017-08-15T00:58:59.945Z,5.37
2017-08-15T01:01:28.201Z,5.17
2017-08-15T01:03:56.521Z,5.03
2017-08-15T01:06:24.742Z,6.03
2017-08-15T01:08:53.754Z,5.00
2017-08-15T01:11:22.762Z,4.67
2017-08-15T01:13:51.019Z,5.00
2017-08-15T01:16:19.248Z,5.07
2017-08-15T01:18:47.507Z,5.43
2017-08-15T01:21:15.751Z,5.20
2017-08-15T01:23:44.784Z,5.43
2017-08-15T01:26:13.035Z,5.53
2017-08-15T01:28:42.037Z,4.50
2017-08-15T01:31:10.335Z,4.33
2017-08-15T01:33:38.627Z,5.70
2017-08-15T01:36:06.854Z,5.47
2017-08-15T01:38:35.887Z,5.37
2017-08-15T01:41:04.172Z,6.30
2017-08-15T01:43:32.442Z,5.37
2017-08-15T01:46:00.689Z,5.47
2017-08-15T01:48:28.941Z,5.40
2017-08-15T01:50:57.210Z,5.83
2017-08-15T01:53:25.429Z,5.40
2017-08-15T01:55:53.728Z,6.10
2017-08-15T01:58:21.965Z,5.83
2017-08-15T02:00:51.010Z,5.10
2017-08-15T02:03:19.275Z,6.40
2017-08-15T02:05:47.552Z,5.20
2017-08-15T02:08:15.790Z,5.47
2017-08-15T02:10:44.831Z,5.97
2017-08-15T02:13:13.084Z,6.53
2017-08-15T02:15:41.338Z,5.40
2017-08-15T02:18:09.609Z,6.03
2017-08-15T02:20:38.635Z,6.37
2017-08-15T02:23:06.886Z,6.10
2017-08-15T02:25:35.902Z,7.47
2017-08-15T02:28:04.187Z,6.80
2017-08-15T02:30:32.457Z,6.23
2017-08-15T02:33:00.703Z,5.97
2017-08-15T02:35:28.924Z,6.67
2017-08-15T02:37:57.161Z,6.40
2017-08-15T02:40:26.146Z,6.50
2017-08-15T02:42:55.174Z,6.33
2017-08-15T02:45:23.440Z,6.17
2017-08-15T02:47:52.436Z,6.60
2017-08-15T02:50:21.442Z,6.33
2017-08-15T02:52:49.713Z,7.57
2017-08-15T02:55:18.702Z,6.03
2017-08-15T02:57:47.694Z,6.03
2017-08-15T03:00:16.713Z,6.90
2017-08-15T03:02:44.954Z,6.50
2017-08-15T03:05:13.962Z,6.37
2017-08-15T03:07:42.191Z,6.50
2017-08-15T03:10:10.442Z,6.43
2017-08-15T03:12:38.735Z,6.17
2017-08-15T03:15:06.964Z,6.37
2017-08-15T03:17:36.003Z,6.83
2017-08-15T03:20:04.234Z,6.87
2017-08-15T03:22:32.498Z,6.13
2017-08-15T03:25:01.511Z,7.47
2017-08-15T03:27:29.799Z,8.20
2017-08-15T03:29:58.050Z,7.17
2017-08-15T03:32:27.086Z,6.20
2017-08-15T03:34:55.319Z,7.90
2017-08-15T03:37:24.319Z,8.20
2017-08-15T03:39:53.356Z,7.47
2017-08-15T03:42:21.588Z,6.00
2017-08-15T03:44:50.638Z,8.03
2017-08-15T03:47:18.880Z,6.67
2017-08-15T03:49:47.122Z,6.90
2017-08-15T03:52:15.357Z,6.50
2017-08-15T03:54:46.185Z,6.30
2017-08-15T03:57:15.198Z,6.77
2017-08-15T03:59:43.444Z,6.90
2017-08-15T04:02:11.675Z,6.70
2017-08-15T04:04:40.851Z,6.70
2017-08-15T04:07:09.111Z,6.10
2017-08-15T04:09:37.390Z,7.43
2017-08-15T04:12:05.629Z,6.00
2017-08-15T04:14:34.671Z,11.60
2017-08-15T04:17:02.917Z,7.43
2017-08-15T04:19:31.185Z,7.10
2017-08-15T04:22:00.215Z,7.67
2017-08-15T04:24:28.804Z,9.10
2017-08-15T04:26:57.052Z,6.07
2017-08-15T04:29:26.071Z,6.70
2017-08-15T04:31:54.655Z,7.63
2017-08-15T04:34:22.926Z,7.30
2017-08-15T04:36:51.162Z,7.23
2017-08-15T04:39:20.170Z,7.90
2017-08-15T04:41:49.006Z,6.40
2017-08-15T04:44:17.247Z,7.57
2017-08-15T04:46:45.518Z,7.10
2017-08-15T04:49:13.804Z,6.60
2017-08-15T04:51:42.785Z,6.20
2017-08-15T04:54:11.819Z,7.17
2017-08-15T04:56:40.034Z,6.00
2017-08-15T04:59:09.057Z,6.10
2017-08-15T05:01:37.314Z,5.90
2017-08-15T05:04:05.566Z,5.47
2017-08-15T05:06:33.821Z,5.77
2017-08-15T05:09:02.192Z,5.87
2017-08-15T05:11:30.447Z,5.97
2017-08-15T05:13:58.693Z,6.00
2017-08-15T05:16:27.743Z,6.30
2017-08-15T05:18:56.342Z,5.67
2017-08-15T05:21:24.585Z,5.10
2017-08-15T05:23:52.834Z,5.97
2017-08-15T05:26:21.095Z,5.60
2017-08-15T05:28:49.330Z,5.83
2017-08-15T05:31:17.566Z,5.10
2017-08-15T05:33:45.820Z,4.93
2017-08-15T05:36:14.082Z,5.50
2017-08-15T05:38:42.311Z,5.30
2017-08-15T05:41:10.587Z,4.20
2017-08-15T05:43:38.831Z,4.80
2017-08-15T05:46:07.181Z,4.63
2017-08-15T05:48:35.425Z,4.80
2017-08-15T05:51:04.429Z,4.80
2017-08-15T05:53:32.664Z,4.40
2017-08-15T05:56:00.927Z,4.73
2017-08-15T05:58:29.274Z,5.37
2017-08-15T06:00:57.524Z,6.07
2017-08-15T06:03:26.582Z,5.00
2017-08-15T06:05:54.822Z,5.10
2017-08-15T06:08:23.062Z,5.00
2017-08-15T06:10:51.331Z,5.23
2017-08-15T06:13:19.555Z,4.47
2017-08-15T06:15:47.857Z,19.17
2017-08-15T06:18:16.115Z,9.40
2017-08-15T06:20:44.358Z,5.80
2017-08-15T06:23:13.403Z,5.03
2017-08-15T06:25:41.653Z,3.93
2017-08-15T06:28:09.947Z,5.20
2017-08-15T06:30:38.203Z,4.20
2017-08-15T06:33:06.477Z,4.80
2017-08-15T06:35:34.726Z,4.20
2017-08-15T06:38:03.736Z,4.30
2017-08-15T06:40:31.989Z,4.63
2017-08-15T06:43:00.242Z,4.47
2017-08-15T06:45:28.517Z,4.70
2017-08-15T06:47:56.765Z,4.37
2017-08-15T06:50:25.014Z,5.50
2017-08-15T06:52:54.044Z,4.30
2017-08-15T06:55:22.283Z,4.63
2017-08-15T06:57:50.567Z,3.93
2017-08-15T07:00:19.567Z,3.67
2017-08-15T07:02:47.888Z,4.13
2017-08-15T07:05:16.128Z,5.20
2017-08-15T07:07:44.418Z,3.93
2017-08-15T07:10:12.679Z,4.17
2017-08-15T07:12:40.942Z,4.17
2017-08-15T07:15:09.995Z,4.20
2017-08-15T07:17:38.246Z,4.87
2017-08-15T07:20:06.483Z,4.10
2017-08-15T07:22:35.543Z,3.70
2017-08-15T07:25:03.818Z,4.23
2017-08-15T07:27:32.068Z,4.17
2017-08-15T07:30:00.319Z,3.80
2017-08-15T07:32:28.568Z,4.33
2017-08-15T07:34:56.845Z,3.83
2017-08-15T07:37:25.099Z,3.63
2017-08-15T07:39:53.333Z,4.90
2017-08-15T07:42:21.607Z,3.80
2017-08-15T07:44:49.844Z,3.63
2017-08-15T07:47:18.111Z,3.80
2017-08-15T07:49:46.391Z,3.80
2017-08-15T07:52:14.633Z,4.40
2017-08-15T07:54:42.914Z,3.93
2017-08-15T07:57:11.143Z,3.80
2017-08-15T07:59:40.177Z,3.40
2017-08-15T08:02:08.498Z,3.57
2017-08-15T08:04:36.747Z,3.77
2017-08-15T08:07:05.000Z,3.67
2017-08-15T08:09:33.347Z,3.73
2017-08-15T08:12:01.612Z,3.67
2017-08-15T08:14:29.867Z,3.40
2017-08-15T08:16:58.264Z,4.43
2017-08-15T08:19:26.513Z,3.40
2017-08-15T08:21:54.780Z,3.60
2017-08-15T08:24:23.004Z,3.40
2017-08-15T08:26:51.294Z,3.80
2017-08-15T08:29:19.530Z,3.00
2017-08-15T08:31:48.204Z,3.30
2017-08-15T08:34:17.219Z,4.10
2017-08-15T08:36:45.494Z,2.47
2017-08-15T08:39:13.735Z,3.57
2017-08-15T08:41:41.950Z,2.87
2017-08-15T08:44:10.235Z,2.63
2017-08-15T08:46:38.495Z,2.90
2017-08-15T08:49:06.733Z,2.50
2017-08-15T08:51:35.735Z,2.67
2017-08-15T08:54:04.755Z,2.83
2017-08-15T08:56:33.005Z,2.93
2017-08-15T08:59:01.273Z,2.80
2017-08-15T09:01:30.418Z,2.80
2017-08-15T09:03:58.686Z,3.07
2017-08-15T09:06:26.965Z,2.70
2017-08-15T09:08:55.269Z,2.83
2017-08-15T09:11:24.255Z,2.60
2017-08-15T09:13:52.487Z,2.53
2017-08-15T09:16:20.799Z,3.70
2017-08-15T09:18:49.046Z,3.10
2017-08-15T09:21:17.320Z,2.70
2017-08-15T09:23:45.907Z,2.70
2017-08-15T09:26:14.593Z,2.67
2017-08-15T09:28:48.539Z,3.27
2017-08-15T09:31:16.793Z,2.67
2017-08-15T09:33:45.034Z,3.50
2017-08-15T09:36:14.071Z,3.03
2017-08-15T09:38:42.324Z,2.80
2017-08-15T09:41:10.573Z,3.27
2017-08-15T09:43:38.864Z,4.40
2017-08-15T09:46:07.894Z,3.50
2017-08-15T09:48:36.114Z,2.80
2017-08-15T09:51:04.373Z,3.83
2017-08-15T09:53:32.612Z,3.97
2017-08-15T09:56:00.898Z,3.27
2017-08-15T09:58:34.892Z,4.83
2017-08-15T10:01:03.170Z,3.80
2017-08-15T10:03:31.419Z,3.20
2017-08-15T10:05:59.703Z,3.20
2017-08-15T10:08:28.745Z,3.00
2017-08-15T10:10:56.990Z,3.37
2017-08-15T10:13:25.309Z,3.87
2017-08-15T10:15:53.542Z,3.60
2017-08-15T10:18:21.832Z,3.13
2017-08-15T10:20:50.070Z,2.73
2017-08-15T10:23:18.298Z,3.33
2017-08-15T10:25:46.566Z,3.20
2017-08-15T10:28:14.835Z,3.03
2017-08-15T10:30:43.407Z,3.60
2017-08-15T10:33:12.451Z,3.73
2017-08-15T10:35:40.690Z,3.63
2017-08-15T10:38:08.982Z,4.23
2017-08-15T10:40:37.197Z,3.70
2017-08-15T10:43:05.492Z,3.30
2017-08-15T10:45:33.742Z,4.17
2017-08-15T10:48:02.005Z,4.50
2017-08-15T10:50:30.267Z,3.77
2017-08-15T10:52:58.504Z,3.60
2017-08-15T10:55:27.545Z,3.10
2017-08-15T10:57:55.849Z,3.83
2017-08-15T11:00:24.073Z,3.67
2017-08-15T11:02:52.326Z,4.17
2017-08-15T11:05:21.382Z,3.37
2017-08-15T11:07:49.636Z,4.20
2017-08-15T11:10:17.874Z,3.90
2017-08-15T11:12:46.144Z,3.73
2017-08-15T11:15:14.406Z,3.60
2017-08-15T11:17:42.626Z,4.50
2017-08-15T11:20:10.878Z,4.63
2017-08-15T11:22:39.182Z,3.87
2017-08-15T11:25:08.283Z,4.07
2017-08-15T11:27:36.559Z,3.70
2017-08-15T11:30:04.842Z,4.20
2017-08-15T11:32:33.082Z,3.27
2017-08-15T11:35:01.411Z,4.47
2017-08-15T11:37:30.378Z,3.70
2017-08-15T11:39:59.386Z,3.87
2017-08-15T11:42:27.634Z,4.63
2017-08-15T11:44:56.646Z,4.37
2017-08-15T11:47:24.919Z,4.33
2017-08-15T11:49:53.926Z,4.70
2017-08-15T11:52:22.171Z,5.47
2017-08-15T11:54:51.231Z,5.63
2017-08-15T11:57:19.490Z,5.07
2017-08-15T11:59:47.773Z,4.93
2017-08-15T12:02:15.998Z,4.80
2017-08-15T12:04:45.062Z,4.90
2017-08-15T12:07:13.834Z,3.80
2017-08-15T12:09:42.904Z,3.60
2017-08-15T12:12:11.179Z,4.03
2017-08-15T12:14:39.454Z,3.67
2017-08-15T12:17:08.483Z,3.80
2017-08-15T12:19:36.977Z,3.83
2017-08-15T12:22:05.268Z,3.40
2017-08-15T12:24:33.563Z,3.73
2017-08-15T12:27:01.803Z,4.03
2017-08-15T12:29:30.071Z,4.20
2017-08-15T12:31:58.322Z,3.80
2017-08-15T12:34:26.586Z,3.67
2017-08-15T12:36:55.615Z,3.27
2017-08-15T12:39:23.912Z,3.83
2017-08-15T12:41:52.198Z,3.80
2017-08-15T12:44:20.451Z,4.87
2017-08-15T12:46:48.748Z,5.37
2017-08-15T12:49:17.900Z,4.50
2017-08-15T12:51:46.165Z,4.13
2017-08-15T12:54:15.176Z,3.73
2017-08-15T12:56:43.418Z,3.17
2017-08-15T12:59:11.696Z,3.70
2017-08-15T13:01:39.943Z,3.97
2017-08-15T13:04:08.318Z,4.13
2017-08-15T13:06:36.557Z,3.37
2017-08-15T13:09:04.806Z,3.40
2017-08-15T13:11:33.874Z,3.03
2017-08-15T13:14:02.113Z,3.50
2017-08-15T13:16:30.917Z,3.50
2017-08-15T13:18:59.198Z,3.63
2017-08-15T13:21:27.475Z,2.90
2017-08-15T13:23:56.454Z,2.70
2017-08-15T13:26:24.706Z,3.37
2017-08-15T13:28:53.740Z,3.30
2017-08-15T13:31:22.506Z,4.50
2017-08-15T13:33:51.019Z,2.77
2017-08-15T13:36:19.258Z,4.50
2017-08-15T13:38:48.291Z,2.93
2017-08-15T13:41:16.515Z,3.80
2017-08-15T13:43:45.543Z,3.30
2017-08-15T13:46:13.809Z,2.63
2017-08-15T13:48:42.070Z,3.50
2017-08-15T13:51:11.110Z,2.90
2017-08-15T13:53:39.383Z,3.47
2017-08-15T13:56:07.616Z,2.97
2017-08-15T13:58:36.755Z,2.93
2017-08-15T14:01:04.985Z,3.60
2017-08-15T14:03:33.260Z,21.93
2017-08-15T14:06:02.302Z,3.33
2017-08-15T14:08:31.198Z,3.67
2017-08-15T14:10:59.443Z,5.10
2017-08-15T14:13:27.721Z,3.30
2017-08-15T14:15:56.762Z,3.20
2017-08-15T14:18:25.050Z,3.00
2017-08-15T14:20:53.474Z,7.97
2017-08-15T14:23:22.464Z,3.70
2017-08-15T14:25:50.746Z,3.63
2017-08-15T14:28:19.014Z,3.47
2017-08-15T14:30:47.283Z,3.37
2017-08-15T14:33:16.355Z,3.70
2017-08-15T14:35:44.667Z,3.30
2017-08-15T14:38:13.694Z,3.90
2017-08-15T14:40:42.013Z,3.20
2017-08-15T14:43:10.270Z,3.87
2017-08-15T14:45:38.628Z,3.50
2017-08-15T14:48:07.758Z,3.50
2017-08-15T14:50:36.004Z,3.57
2017-08-15T14:53:04.293Z,3.23
2017-08-15T14:55:32.535Z,3.60
2017-08-15T14:58:01.575Z,3.37
2017-08-15T15:00:29.819Z,4.40
2017-08-15T15:02:58.131Z,4.43
2017-08-15T15:05:26.414Z,4.20
2017-08-15T15:07:54.656Z,3.80
2017-08-15T15:10:22.950Z,4.17
2017-08-15T15:12:51.189Z,3.53
2017-08-15T15:15:19.455Z,3.67
2017-08-15T15:17:48.483Z,3.97
2017-08-15T15:20:16.723Z,3.90
2017-08-15T15:22:45.122Z,3.50
2017-08-15T15:25:14.106Z,4.20
2017-08-15T15:27:43.156Z,4.00
2017-08-15T15:30:11.689Z,3.63
2017-08-15T15:32:39.936Z,4.10
2017-08-15T15:35:09.239Z,4.03
2017-08-15T15:37:37.507Z,4.30
2017-08-15T15:40:06.711Z,3.93
2017-08-15T15:42:34.950Z,4.00
2017-08-15T15:45:04.197Z,4.00
2017-08-15T15:47:32.492Z,3.93
2017-08-15T15:50:01.530Z,4.27
2017-08-15T15:52:29.787Z,4.47
2017-08-15T15:54:58.058Z,4.50
2017-08-15T15:57:26.311Z,4.47
2017-08-15T15:59:55.450Z,4.23
2017-08-15T16:02:24.464Z,5.23
2017-08-15T16:04:52.775Z,5.50
2017-08-15T16:07:21.053Z,4.90
2017-08-15T16:09:49.306Z,4.10
2017-08-15T16:12:17.560Z,4.83
2017-08-15T16:14:45.830Z,4.60
2017-08-15T16:17:14.081Z,4.10
2017-08-15T16:19:42.398Z,4.83
2017-08-15T16:22:10.867Z,4.93
2017-08-15T16:24:39.122Z,4.17
2017-08-15T16:27:08.295Z,3.97
2017-08-15T16:29:36.564Z,5.07
2017-08-15T16:32:04.836Z,4.67
2017-08-15T16:34:33.106Z,5.80
2017-08-15T16:37:02.397Z,5.40
2017-08-15T16:39:30.641Z,5.10
2017-08-15T16:41:58.934Z,5.10
2017-08-15T16:44:27.187Z,5.53
2017-08-15T16:46:55.433Z,5.30
2017-08-15T16:49:23.706Z,5.40
2017-08-15T16:51:51.983Z,5.03
2017-08-15T16:54:21.061Z,5.57
2017-08-15T16:56:49.325Z,5.20
2017-08-15T16:59:17.640Z,5.80
2017-08-15T17:01:45.968Z,4.93
2017-08-15T17:04:14.225Z,5.20
2017-08-15T17:06:43.210Z,4.80
2017-08-15T17:09:12.844Z,5.23
2017-08-15T17:11:41.117Z,5.23
2017-08-15T17:14:09.412Z,6.00
2017-08-15T17:16:37.645Z,5.03
2017-08-15T17:19:07.085Z,5.97
2017-08-15T17:21:35.359Z,5.57
2017-08-15T17:24:03.643Z,5.63
2017-08-15T17:26:31.874Z,4.70
2017-08-15T17:29:00.145Z,5.53
2017-08-15T17:31:28.419Z,6.50
2017-08-15T17:33:56.673Z,5.80
2017-08-15T17:36:25.023Z,5.70
2017-08-15T17:38:54.051Z,5.97
2017-08-15T17:41:22.294Z,5.63
2017-08-15T17:43:51.290Z,6.40
2017-08-15T17:46:19.558Z,6.57
2017-08-15T17:48:49.656Z,6.20
2017-08-15T17:51:18.739Z,11.70
2017-08-15T17:53:47.069Z,6.60
2017-08-15T17:56:15.313Z,6.47
2017-08-15T17:58:43.652Z,6.47
2017-08-15T18:01:11.959Z,6.80
2017-08-15T18:03:40.994Z,6.70
2017-08-15T18:06:09.301Z,5.73
2017-08-15T18:08:37.546Z,7.30
2017-08-15T18:11:05.830Z,5.90
2017-08-15T18:13:34.069Z,9.10
2017-08-15T18:16:03.126Z,9.50
2017-08-15T18:18:32.222Z,9.97
2017-08-15T18:21:00.502Z,8.20
2017-08-15T18:23:28.814Z,8.70
2017-08-15T18:25:57.856Z,7.00
2017-08-15T18:28:26.129Z,6.90
2017-08-15T18:30:54.421Z,8.07
2017-08-15T18:33:22.734Z,7.57
2017-08-15T18:35:51.266Z,6.97
2017-08-15T18:38:19.946Z,7.93
2017-08-15T18:40:48.196Z,7.60
2017-08-15T18:43:16.509Z,8.80
2017-08-15T18:45:44.815Z,8.73
2017-08-15T18:48:13.061Z,8.13
2017-08-15T18:50:41.357Z,7.90
2017-08-15T18:53:09.672Z,8.53
2017-08-15T18:55:38.722Z,8.53
2017-08-15T18:58:06.998Z,8.30
2017-08-15T19:00:35.320Z,8.87
2017-08-15T19:03:04.390Z,7.93
2017-08-15T19:05:32.639Z,9.07
2017-08-15T19:08:00.971Z,7.67
2017-08-15T19:10:30.850Z,9.20
2017-08-15T19:12:59.435Z,9.30
2017-08-15T19:15:27.703Z,8.67
2017-08-15T19:17:56.285Z,8.53
2017-08-15T19:20:24.851Z,8.63
2017-08-15T19:22:53.836Z,8.77
2017-08-15T19:25:25.525Z,8.53
2017-08-15T19:27:55.427Z,8.40
2017-08-15T19:30:23.765Z,7.87
2017-08-15T19:32:52.098Z,8.17
2017-08-15T19:35:21.236Z,7.87
2017-08-15T19:37:49.585Z,8.50
2017-08-15T19:40:18.016Z,8.47
2017-08-15T19:42:47.837Z,8.17
2017-08-15T19:45:16.222Z,9.20
2017-08-15T19:47:45.502Z,9.20
2017-08-15T19:50:14.738Z,10.83
2017-08-15T19:52:43.068Z,7.53
2017-08-15T19:55:12.901Z,8.50
2017-08-15T19:57:42.249Z,7.60
2017-08-15T20:00:11.508Z,8.30
2017-08-15T20:02:40.627Z,7.90
2017-08-15T20:05:08.907Z,8.93
2017-08-15T20:07:37.214Z,9.77
2017-08-15T20:10:05.553Z,9.20
2017-08-15T20:12:33.823Z,11.30
2017-08-15T20:15:02.085Z,12.70
2017-08-15T20:17:30.393Z,11.17
2017-08-15T20:19:58.675Z,13.30
2017-08-15T20:22:27.300Z,12.10
2017-08-15T20:24:55.578Z,13.30
2017-08-15T20:27:23.891Z,12.80
2017-08-15T20:29:52.176Z,12.20
2017-08-15T20:32:20.461Z,10.60
2017-08-15T20:34:48.759Z,11.37
2017-08-15T20:37:17.070Z,10.00
2017-08-15T20:39:45.363Z,10.43
2017-08-15T20:42:14.442Z,9.23
2017-08-15T20:44:43.152Z,9.63
2017-08-15T20:47:12.208Z,9.87
2017-08-15T20:49:41.304Z,9.90
2017-08-15T20:52:09.612Z,9.47
2017-08-15T20:54:38.750Z,8.90
2017-08-15T20:57:07.208Z,8.30
2017-08-15T20:59:36.377Z,9.00
2017-08-15T21:02:04.686Z,8.60
2017-08-15T21:04:33.089Z,9.83
2017-08-15T21:07:01.341Z,8.83
2017-08-15T21:09:29.597Z,10.73
2017-08-15T21:11:58.736Z,9.00
2017-08-15T21:14:27.027Z,8.93
2017-08-15T21:16:56.114Z,8.87
2017-08-15T21:19:25.265Z,9.17
2017-08-15T21:21:54.298Z,8.47
2017-08-15T21:24:22.894Z,10.13
2017-08-15T21:26:52.565Z,10.33
2017-08-15T21:29:21.581Z,9.67
2017-08-15T21:31:52.419Z,8.43
2017-08-15T21:34:20.699Z,7.87
2017-08-15T21:36:49.051Z,8.43
2017-08-15T21:39:18.116Z,8.27
2017-08-15T21:41:46.533Z,12.67
2017-08-15T21:44:15.598Z,8.00
2017-08-15T21:46:43.870Z,12.17
2017-08-15T21:49:12.134Z,9.13
2017-08-15T21:51:41.158Z,8.80
2017-08-15T21:54:09.454Z,8.60
2017-08-15T21:56:37.790Z,9.07
2017-08-15T21:59:06.512Z,9.17
2017-08-15T22:01:40.463Z,8.10
2017-08-15T22:04:08.701Z,8.63
2017-08-15T22:06:37.223Z,9.90
2017-08-15T22:09:06.340Z,9.37
2017-08-15T22:11:35.172Z,9.60
2017-08-15T22:14:04.857Z,9.37
2017-08-15T22:16:33.147Z,8.53
2017-08-15T22:19:01.974Z,11.70
2017-08-15T22:21:30.256Z,10.03
2017-08-15T22:23:58.526Z,9.93
2017-08-15T22:26:26.791Z,10.47
2017-08-15T22:28:55.155Z,9.40
2017-08-15T22:31:24.182Z,11.83
2017-08-15T22:33:52.484Z,10.60
2017-08-15T22:36:20.759Z,10.37
2017-08-15T22:38:49.134Z,11.37
2017-08-15T22:41:17.423Z,11.17
2017-08-15T22:43:45.690Z,10.90
2017-08-15T22:46:13.964Z,9.83
2017-08-15T22:48:42.254Z,9.27
2017-08-15T22:51:10.524Z,11.50
2017-08-15T22:53:38.934Z,23.37
2017-08-15T22:56:07.184Z,18.60
2017-08-15T22:58:35.456Z,20.37
2017-08-15T23:01:03.953Z,19.40
2017-08-15T23:03:32.525Z,19.97
2017-08-15T23:06:00.775Z,22.77
2017-08-15T23:08:29.033Z,21.97
2017-08-15T23:10:58.077Z,26.57
2017-08-15T23:13:26.359Z,22.70
2017-08-15T23:15:54.610Z,20.70
2017-08-15T23:18:22.867Z,20.77
2017-08-15T23:20:51.234Z,19.70
2017-08-15T23:23:20.246Z,20.60
2017-08-15T23:25:48.508Z,54.70
2017-08-15T23:28:17.522Z,27.17
2017-08-15T23:30:45.817Z,26.87
2017-08-15T23:33:14.082Z,28.27
2017-08-15T23:35:42.327Z,33.60
2017-08-15T23:38:10.597Z,30.00
2017-08-15T23:40:39.311Z,29.93
2017-08-15T23:43:08.341Z,33.70
2017-08-15T23:45:36.608Z,34.13
2017-08-15T23:48:04.864Z,31.10
2017-08-15T23:50:33.128Z,30.00
2017-08-15T23:53:02.128Z,29.07
2017-08-15T23:55:30.390Z,31.13
2017-08-15T23:57:58.682Z,29.23
